createdAt,value
2019-01-31T00:01:39.098Z,0.20
2019-01-31T00:04:25.054Z,0.20
2019-01-31T00:07:05.071Z,0.30
2019-01-31T00:09:49.824Z,0.20
2019-01-31T00:12:24.795Z,0.20
2019-01-31T00:15:05.459Z,0.20
2019-01-31T00:17:58.012Z,0.20
2019-01-31T00:20:34.832Z,0.23
2019-01-31T00:23:25.510Z,0.20
2019-01-31T00:26:31.249Z,0.30
2019-01-31T00:29:11.918Z,0.30
2019-01-31T00:31:55.887Z,0.30
2019-01-31T00:34:47.794Z,0.23
2019-01-31T00:37:26.094Z,0.20
2019-01-31T00:40:03.951Z,0.20
2019-01-31T00:42:50.016Z,0.30
2019-01-31T00:45:22.843Z,0.20
2019-01-31T00:48:19.451Z,0.67
2019-01-31T00:50:50.059Z,0.20
2019-01-31T00:53:37.025Z,0.20
2019-01-31T00:56:11.872Z,0.20
2019-01-31T00:58:43.534Z,0.30
2019-01-31T01:01:19.307Z,0.30
2019-01-31T01:04:05.239Z,0.27
2019-01-31T01:06:48.788Z,0.30
2019-01-31T01:09:23.600Z,0.30
2019-01-31T01:11:58.288Z,0.27
2019-01-31T01:14:35.159Z,0.30
2019-01-31T01:17:25.646Z,0.20
2019-01-31T01:19:58.096Z,0.20
2019-01-31T01:22:51.805Z,0.30
2019-01-31T01:25:45.395Z,0.30
2019-01-31T01:28:31.348Z,0.30
2019-01-31T01:31:18.907Z,0.23
2019-01-31T01:34:06.498Z,0.30
2019-01-31T01:36:43.151Z,0.20
2019-01-31T01:39:29.414Z,0.20
2019-01-31T01:42:04.809Z,0.20
2019-01-31T01:44:58.451Z,0.30
2019-01-31T01:47:51.806Z,0.30
2019-01-31T01:50:42.146Z,0.30
2019-01-31T01:53:41.969Z,0.30
2019-01-31T01:56:29.527Z,0.30
2019-01-31T01:59:02.315Z,0.30
2019-01-31T02:01:58.894Z,0.30
2019-01-31T02:04:49.228Z,0.30
2019-01-31T02:07:36.794Z,0.40
2019-01-31T02:10:21.174Z,0.37
2019-01-31T02:13:21.065Z,0.30
2019-01-31T02:16:11.820Z,0.40
2019-01-31T02:18:43.649Z,0.40
2019-01-31T02:21:28.108Z,0.40
2019-01-31T02:24:00.834Z,0.40
2019-01-31T02:27:06.343Z,0.40
2019-01-31T02:29:54.945Z,0.40
2019-01-31T02:32:38.199Z,0.40
2019-01-31T02:35:13.748Z,0.33
2019-01-31T02:38:00.019Z,0.40
2019-01-31T02:40:46.375Z,0.40
2019-01-31T02:43:36.397Z,0.40
2019-01-31T02:46:32.786Z,0.40
2019-01-31T02:49:06.960Z,0.40
2019-01-31T02:51:42.394Z,0.40
2019-01-31T02:54:21.855Z,0.40
2019-01-31T02:57:09.428Z,0.50
2019-01-31T02:59:41.367Z,0.40
2019-01-31T03:02:21.652Z,0.40
2019-01-31T03:05:16.275Z,0.40
2019-01-31T03:08:09.986Z,0.40
2019-01-31T03:10:43.015Z,0.40
2019-01-31T03:13:22.932Z,0.40
2019-01-31T03:16:03.471Z,0.40
2019-01-31T03:18:53.433Z,0.50
2019-01-31T03:21:25.633Z,0.43
2019-01-31T03:24:00.488Z,0.50
2019-01-31T03:26:54.076Z,0.50
2019-01-31T03:29:47.446Z,0.40
2019-01-31T03:32:22.952Z,0.50
2019-01-31T03:34:54.675Z,0.50
2019-01-31T03:37:39.478Z,0.40
2019-01-31T03:40:13.299Z,0.40
2019-01-31T03:42:53.212Z,0.40
2019-01-31T03:45:42.101Z,0.50
2019-01-31T03:48:13.729Z,0.40
2019-01-31T03:51:07.339Z,0.50
2019-01-31T03:53:38.877Z,0.50
2019-01-31T03:56:26.444Z,0.50
2019-01-31T03:59:23.065Z,0.50
2019-01-31T04:02:15.807Z,0.40
2019-01-31T04:05:02.271Z,0.40
2019-01-31T04:07:30.677Z,0.50
2019-01-31T04:09:59.277Z,0.50
2019-01-31T04:12:28.386Z,0.50
2019-01-31T04:14:56.727Z,0.50
2019-01-31T04:17:25.056Z,0.40
2019-01-31T04:19:53.421Z,0.50
2019-01-31T04:22:21.741Z,0.40
2019-01-31T04:24:50.086Z,0.40
2019-01-31T04:27:18.423Z,0.40
2019-01-31T04:29:46.760Z,0.40
2019-01-31T04:32:15.100Z,0.40
2019-01-31T04:34:43.454Z,0.50
2019-01-31T04:37:11.849Z,0.40
2019-01-31T04:39:40.196Z,0.50
2019-01-31T04:42:08.595Z,0.40
2019-01-31T04:44:36.943Z,0.40
2019-01-31T04:47:05.649Z,0.50
2019-01-31T04:49:34.204Z,0.50
2019-01-31T04:52:02.865Z,0.50
2019-01-31T04:54:31.479Z,0.50
2019-01-31T04:57:00.403Z,0.50
2019-01-31T04:59:28.992Z,0.40
2019-01-31T05:01:57.609Z,0.50
2019-01-31T05:04:26.436Z,0.50
2019-01-31T05:06:55.066Z,0.50
2019-01-31T05:09:23.608Z,0.40
2019-01-31T05:11:52.159Z,0.40
2019-01-31T05:14:21.084Z,0.40
2019-01-31T05:16:49.741Z,0.50
2019-01-31T05:19:18.519Z,0.50
2019-01-31T05:21:47.177Z,0.40
2019-01-31T05:24:16.046Z,0.40
2019-01-31T05:26:44.772Z,0.40
2019-01-31T05:29:13.349Z,0.40
2019-01-31T05:31:42.048Z,0.40
2019-01-31T05:34:10.705Z,0.50
2019-01-31T05:36:39.360Z,0.40
2019-01-31T05:39:08.349Z,0.40
2019-01-31T05:41:36.966Z,0.33
2019-01-31T05:44:05.444Z,0.40
2019-01-31T05:46:34.062Z,0.40
2019-01-31T05:49:02.522Z,0.40
2019-01-31T05:51:30.881Z,0.40
2019-01-31T05:53:59.385Z,0.40
2019-01-31T05:56:28.819Z,0.40
2019-01-31T05:58:57.143Z,0.40
2019-01-31T06:01:25.558Z,0.40
2019-01-31T06:03:54.155Z,0.40
2019-01-31T06:06:22.503Z,0.40
2019-01-31T06:08:50.872Z,0.40
2019-01-31T06:11:19.514Z,0.30
2019-01-31T06:13:47.858Z,0.30
2019-01-31T06:16:16.245Z,0.40
2019-01-31T06:18:44.583Z,0.30
2019-01-31T06:21:12.937Z,0.40
2019-01-31T06:23:41.401Z,0.40
2019-01-31T06:26:10.021Z,0.40
2019-01-31T06:28:38.526Z,0.30
2019-01-31T06:31:07.143Z,0.30
2019-01-31T06:33:35.975Z,0.30
2019-01-31T06:36:04.624Z,0.30
2019-01-31T06:38:33.287Z,0.40
2019-01-31T06:41:01.912Z,0.30
2019-01-31T06:43:30.544Z,0.30
2019-01-31T06:45:58.888Z,0.40
2019-01-31T06:48:27.470Z,0.30
2019-01-31T06:50:56.076Z,0.33
2019-01-31T06:53:24.966Z,0.30
2019-01-31T06:55:53.642Z,0.30
2019-01-31T06:58:22.578Z,0.30
2019-01-31T07:00:51.107Z,0.30
2019-01-31T07:03:19.868Z,0.30
2019-01-31T07:05:48.510Z,0.30
2019-01-31T07:08:17.070Z,0.30
2019-01-31T07:10:46.561Z,0.30
2019-01-31T07:13:15.288Z,0.30
2019-01-31T07:15:44.256Z,0.30
2019-01-31T07:18:13.018Z,0.30
2019-01-31T07:20:41.701Z,0.30
2019-01-31T07:23:10.364Z,0.30
2019-01-31T07:25:39.059Z,0.30
2019-01-31T07:28:07.627Z,0.30
2019-01-31T07:30:36.288Z,0.30
2019-01-31T07:33:04.994Z,0.30
2019-01-31T07:35:33.662Z,0.30
2019-01-31T07:38:02.161Z,0.30
2019-01-31T07:40:30.777Z,0.30
2019-01-31T07:42:59.377Z,0.30
2019-01-31T07:45:28.848Z,0.30
2019-01-31T07:47:57.506Z,0.30
2019-01-31T07:50:26.239Z,0.30
2019-01-31T07:52:55.188Z,0.30
2019-01-31T07:55:23.743Z,0.30
2019-01-31T07:57:52.162Z,0.30
2019-01-31T08:00:20.737Z,0.30
2019-01-31T08:02:49.069Z,0.23
2019-01-31T08:05:18.102Z,0.30
2019-01-31T08:07:46.830Z,0.30
2019-01-31T08:10:16.531Z,0.30
2019-01-31T08:12:45.183Z,0.30
2019-01-31T08:15:14.444Z,0.30
2019-01-31T08:17:42.781Z,0.30
2019-01-31T08:20:12.052Z,0.30
2019-01-31T08:22:40.460Z,0.30
2019-01-31T08:25:09.724Z,0.20
2019-01-31T08:27:38.166Z,0.30
2019-01-31T08:30:07.719Z,0.30
2019-01-31T08:32:36.068Z,0.30
2019-01-31T08:35:04.662Z,0.30
2019-01-31T08:37:33.085Z,0.20
2019-01-31T08:40:01.471Z,0.20
2019-01-31T08:42:30.223Z,0.20
2019-01-31T08:44:58.551Z,0.30
2019-01-31T08:47:26.885Z,0.20
2019-01-31T08:49:55.225Z,0.30
2019-01-31T08:52:23.563Z,0.30
2019-01-31T08:54:51.958Z,0.20
2019-01-31T08:57:20.555Z,0.20
2019-01-31T08:59:48.891Z,0.27
2019-01-31T09:02:17.239Z,0.20
2019-01-31T09:04:45.571Z,0.30
2019-01-31T09:07:13.985Z,0.30
2019-01-31T09:09:42.401Z,0.30
2019-01-31T09:12:15.329Z,0.30
2019-01-31T09:14:40.876Z,0.20
2019-01-31T09:17:09.214Z,0.20
2019-01-31T09:19:37.551Z,0.30
2019-01-31T09:22:18.211Z,0.20
2019-01-31T09:24:50.883Z,0.30
2019-01-31T09:27:28.722Z,0.20
2019-01-31T09:30:22.301Z,0.20
2019-01-31T09:33:09.882Z,0.30
2019-01-31T09:35:56.126Z,0.20
2019-01-31T09:38:58.588Z,0.30
2019-01-31T09:41:29.477Z,0.20
2019-01-31T09:44:15.524Z,0.30
2019-01-31T09:47:15.311Z,0.30
2019-01-31T09:49:54.749Z,0.20
2019-01-31T09:52:30.851Z,0.20
2019-01-31T09:55:10.437Z,0.20
2019-01-31T09:57:58.024Z,0.30
2019-01-31T10:00:54.346Z,0.30
2019-01-31T10:03:27.466Z,0.20
2019-01-31T10:06:20.799Z,0.20
2019-01-31T10:08:52.198Z,0.20
2019-01-31T10:11:24.836Z,0.20
2019-01-31T10:14:18.782Z,0.30
2019-01-31T10:16:55.706Z,0.20
2019-01-31T10:20:01.468Z,0.20
2019-01-31T10:22:39.900Z,0.20
2019-01-31T10:25:20.823Z,0.20
2019-01-31T10:28:08.412Z,0.30
2019-01-31T10:30:44.794Z,0.20
2019-01-31T10:33:17.293Z,0.20
2019-01-31T10:36:05.677Z,0.30
2019-01-31T10:38:55.891Z,0.20
2019-01-31T10:41:52.611Z,0.30
2019-01-31T10:44:40.240Z,0.20
2019-01-31T10:47:33.698Z,0.20
2019-01-31T10:50:30.399Z,0.20
2019-01-31T10:53:18.013Z,0.20
2019-01-31T10:56:05.581Z,0.20
2019-01-31T10:58:56.195Z,0.30
2019-01-31T11:01:32.028Z,0.20
2019-01-31T11:04:31.567Z,0.30
2019-01-31T11:07:13.725Z,0.20
2019-01-31T11:10:07.073Z,0.30
2019-01-31T11:12:39.453Z,0.20
2019-01-31T11:15:21.827Z,0.30
2019-01-31T11:18:07.773Z,0.20
2019-01-31T11:21:01.101Z,0.20
2019-01-31T11:23:32.969Z,0.20
2019-01-31T11:26:26.685Z,0.30
2019-01-31T11:29:32.153Z,0.20
2019-01-31T11:32:18.399Z,0.20
2019-01-31T11:35:05.191Z,0.20
2019-01-31T11:37:51.199Z,0.20
2019-01-31T11:40:32.066Z,0.20
2019-01-31T11:43:11.918Z,0.20
2019-01-31T11:45:53.332Z,0.20
2019-01-31T11:48:30.147Z,0.30
2019-01-31T11:51:16.467Z,0.30
2019-01-31T11:53:48.409Z,0.30
2019-01-31T11:56:30.638Z,0.20
2019-01-31T11:59:00.242Z,0.30
2019-01-31T12:01:28.899Z,0.27
2019-01-31T12:03:58.967Z,0.20
2019-01-31T12:06:27.358Z,0.30
2019-01-31T12:08:55.775Z,0.30
2019-01-31T12:11:24.170Z,0.20
2019-01-31T12:13:52.515Z,0.30
2019-01-31T12:16:20.920Z,0.30
2019-01-31T12:18:49.259Z,0.30
2019-01-31T12:21:17.592Z,0.20
2019-01-31T12:23:45.932Z,0.20
2019-01-31T12:26:14.250Z,0.20
2019-01-31T12:28:42.675Z,0.20
2019-01-31T12:31:11.086Z,0.20
2019-01-31T12:33:39.503Z,0.20
2019-01-31T12:36:07.946Z,0.20
2019-01-31T12:38:37.162Z,0.30
2019-01-31T12:41:05.584Z,0.20
2019-01-31T12:43:35.457Z,0.20
2019-01-31T12:46:03.984Z,0.20
2019-01-31T12:48:32.322Z,0.30
2019-01-31T12:51:00.735Z,0.20
2019-01-31T12:53:29.076Z,0.20
2019-01-31T12:55:57.487Z,0.20
2019-01-31T12:58:33.254Z,0.20
2019-01-31T13:00:55.954Z,0.20
2019-01-31T13:03:24.349Z,0.20
2019-01-31T13:05:52.781Z,0.20
2019-01-31T13:08:21.162Z,0.20
2019-01-31T13:10:49.588Z,0.20
2019-01-31T13:13:17.920Z,0.20
2019-01-31T13:15:46.388Z,0.20
2019-01-31T13:18:14.792Z,0.20
2019-01-31T13:20:43.211Z,0.20
2019-01-31T13:23:11.618Z,0.20
2019-01-31T13:25:40.138Z,0.20
2019-01-31T13:28:08.547Z,0.20
2019-01-31T13:30:36.879Z,0.20
2019-01-31T13:33:05.283Z,0.20
2019-01-31T13:35:33.880Z,0.20
2019-01-31T13:38:02.620Z,0.20
2019-01-31T13:40:31.103Z,0.20
2019-01-31T13:42:59.423Z,0.20
2019-01-31T13:45:28.823Z,0.20
2019-01-31T13:47:57.670Z,0.20
2019-01-31T13:50:26.003Z,0.20
2019-01-31T13:52:54.711Z,0.20
2019-01-31T13:55:24.201Z,0.20
2019-01-31T13:57:52.969Z,0.20
2019-01-31T14:00:21.491Z,0.20
2019-01-31T14:02:49.861Z,0.20
2019-01-31T14:05:18.277Z,0.20
2019-01-31T14:07:47.074Z,0.20
2019-01-31T14:10:16.878Z,0.20
2019-01-31T14:12:45.213Z,0.20
2019-01-31T14:15:14.501Z,0.20
2019-01-31T14:17:42.826Z,0.20
2019-01-31T14:20:12.569Z,0.20
2019-01-31T14:22:42.956Z,0.20
2019-01-31T14:25:11.045Z,0.20
2019-01-31T14:27:39.442Z,0.20
2019-01-31T14:30:10.695Z,0.20
2019-01-31T14:32:39.207Z,0.20
2019-01-31T14:35:08.059Z,0.20
2019-01-31T14:37:36.568Z,0.20
2019-01-31T14:40:05.303Z,0.20
2019-01-31T14:42:33.631Z,0.20
2019-01-31T14:45:02.042Z,0.20
2019-01-31T14:47:30.361Z,0.20
2019-01-31T14:49:58.823Z,0.20
2019-01-31T14:52:27.193Z,0.20
2019-01-31T14:54:55.599Z,0.20
2019-01-31T14:57:23.918Z,0.20
2019-01-31T14:59:52.257Z,0.20
2019-01-31T15:02:20.595Z,0.30
2019-01-31T15:04:49.001Z,0.20
2019-01-31T15:07:17.506Z,0.30
2019-01-31T15:09:45.819Z,0.20
2019-01-31T15:12:15.433Z,0.20
2019-01-31T15:14:44.027Z,0.20
2019-01-31T15:17:12.454Z,0.20
2019-01-31T15:19:41.047Z,0.20
2019-01-31T15:22:10.455Z,0.20
2019-01-31T15:24:38.929Z,0.20
2019-01-31T15:27:07.346Z,0.20
2019-01-31T15:29:35.724Z,0.20
2019-01-31T15:32:04.244Z,0.20
2019-01-31T15:34:32.757Z,0.20
2019-01-31T15:37:02.150Z,0.20
2019-01-31T15:39:30.921Z,0.20
2019-01-31T15:41:59.242Z,0.20
2019-01-31T15:44:27.558Z,0.20
2019-01-31T15:46:56.278Z,0.20
2019-01-31T15:49:24.702Z,0.20
2019-01-31T15:51:53.043Z,0.20
2019-01-31T15:54:21.371Z,0.20
2019-01-31T15:56:49.779Z,0.20
2019-01-31T15:59:18.098Z,0.20
2019-01-31T16:01:46.510Z,0.20
2019-01-31T16:04:14.912Z,0.27
2019-01-31T16:06:43.251Z,0.20
2019-01-31T16:09:11.738Z,0.20
2019-01-31T16:11:40.093Z,0.20
2019-01-31T16:14:08.512Z,0.20
2019-01-31T16:16:37.200Z,0.20
2019-01-31T16:19:05.586Z,0.23
2019-01-31T16:21:34.194Z,0.20
2019-01-31T16:24:02.506Z,0.20
2019-01-31T16:26:30.854Z,0.20
2019-01-31T16:28:59.180Z,0.20
2019-01-31T16:31:27.531Z,0.20
2019-01-31T16:33:55.838Z,0.20
2019-01-31T16:36:24.296Z,0.20
2019-01-31T16:38:52.622Z,0.20
2019-01-31T16:41:20.957Z,0.20
2019-01-31T16:43:49.286Z,0.20
2019-01-31T16:46:17.866Z,0.20
2019-01-31T16:48:46.383Z,0.30
2019-01-31T16:51:14.759Z,0.20
2019-01-31T16:53:43.271Z,0.20
2019-01-31T16:56:11.602Z,0.20
2019-01-31T16:58:39.926Z,0.30
2019-01-31T17:01:08.263Z,0.20
2019-01-31T17:03:36.591Z,0.20
2019-01-31T17:06:05.077Z,0.20
2019-01-31T17:08:33.474Z,0.20
2019-01-31T17:11:02.078Z,0.20
2019-01-31T17:13:30.718Z,0.20
2019-01-31T17:15:59.118Z,0.20
2019-01-31T17:18:28.339Z,0.20
2019-01-31T17:20:56.814Z,0.20
2019-01-31T17:23:25.285Z,0.20
2019-01-31T17:25:53.722Z,0.20
2019-01-31T17:28:22.615Z,0.20
2019-01-31T17:30:50.993Z,0.20
2019-01-31T17:33:19.342Z,0.20
2019-01-31T17:35:47.984Z,0.20
2019-01-31T17:38:16.578Z,0.20
2019-01-31T17:40:45.154Z,0.20
2019-01-31T17:43:15.089Z,0.20
2019-01-31T17:45:43.460Z,0.20
2019-01-31T17:48:17.355Z,0.20
2019-01-31T17:50:46.946Z,0.20
2019-01-31T17:53:15.375Z,0.20
2019-01-31T17:55:43.927Z,0.20
2019-01-31T17:58:12.598Z,0.20
2019-01-31T18:00:45.278Z,0.20
2019-01-31T18:03:13.712Z,0.20
2019-01-31T18:05:42.197Z,0.20
2019-01-31T18:08:10.616Z,0.20
2019-01-31T18:10:39.102Z,0.20
2019-01-31T18:13:07.504Z,0.20
2019-01-31T18:15:42.349Z,0.20
2019-01-31T18:18:07.205Z,0.20
2019-01-31T18:20:35.781Z,0.20
2019-01-31T18:23:04.407Z,0.20
2019-01-31T18:25:33.852Z,0.20
2019-01-31T18:28:02.257Z,0.20
2019-01-31T18:30:31.146Z,0.20
2019-01-31T18:33:01.595Z,0.20
2019-01-31T18:35:30.088Z,0.20
2019-01-31T18:37:58.507Z,0.20
2019-01-31T18:40:28.175Z,0.20
2019-01-31T18:42:57.798Z,0.20
2019-01-31T18:45:27.162Z,0.20
2019-01-31T18:47:55.540Z,0.20
2019-01-31T18:50:24.904Z,0.20
2019-01-31T18:52:53.315Z,0.20
2019-01-31T18:55:22.899Z,0.30
2019-01-31T18:57:51.310Z,0.30
2019-01-31T19:00:21.787Z,0.20
2019-01-31T19:02:50.292Z,0.20
2019-01-31T19:05:20.111Z,0.30
2019-01-31T19:07:48.446Z,0.30
2019-01-31T19:10:16.869Z,0.30
2019-01-31T19:12:45.288Z,0.20
2019-01-31T19:15:14.211Z,0.30
2019-01-31T19:17:42.618Z,0.30
2019-01-31T19:20:13.851Z,0.30
2019-01-31T19:22:42.199Z,0.30
2019-01-31T19:25:11.184Z,0.30
2019-01-31T19:27:39.596Z,0.30
2019-01-31T19:30:10.497Z,0.30
2019-01-31T19:32:38.881Z,0.30
2019-01-31T19:35:07.567Z,0.30
2019-01-31T19:37:36.084Z,0.30
2019-01-31T19:40:05.419Z,0.30
2019-01-31T19:42:34.216Z,0.30
2019-01-31T19:45:03.145Z,0.30
2019-01-31T19:47:31.546Z,0.30
2019-01-31T19:49:59.983Z,0.30
2019-01-31T19:52:28.839Z,0.20
2019-01-31T19:54:57.700Z,0.20
2019-01-31T19:57:26.477Z,0.30
2019-01-31T19:59:55.528Z,0.30
2019-01-31T20:02:24.525Z,0.20
2019-01-31T20:04:53.522Z,0.20
2019-01-31T20:07:22.442Z,0.20
2019-01-31T20:10:11.401Z,0.20
2019-01-31T20:12:40.640Z,0.30
2019-01-31T20:15:10.329Z,0.30
2019-01-31T20:17:39.423Z,0.20
2019-01-31T20:20:10.776Z,0.30
2019-01-31T20:22:39.620Z,0.30
2019-01-31T20:25:09.678Z,0.20
2019-01-31T20:27:38.864Z,0.30
2019-01-31T20:30:08.947Z,0.30
2019-01-31T20:32:38.035Z,0.23
2019-01-31T20:35:08.882Z,0.30
2019-01-31T20:37:37.845Z,0.30
2019-01-31T20:40:08.735Z,0.30
2019-01-31T20:42:37.487Z,0.20
2019-01-31T20:45:07.916Z,0.30
2019-01-31T20:47:36.718Z,0.30
2019-01-31T20:50:08.065Z,0.30
2019-01-31T20:52:37.142Z,0.30
2019-01-31T20:55:07.446Z,0.30
2019-01-31T20:57:36.316Z,0.30
2019-01-31T21:00:08.585Z,0.30
2019-01-31T21:02:37.435Z,0.30
2019-01-31T21:05:06.596Z,0.30
2019-01-31T21:07:35.544Z,0.30
2019-01-31T21:10:05.291Z,0.30
2019-01-31T21:12:34.477Z,0.30
2019-01-31T21:15:03.635Z,0.30
2019-01-31T21:17:32.601Z,0.30
2019-01-31T21:20:01.521Z,0.30
2019-01-31T21:22:30.376Z,0.30
2019-01-31T21:24:59.180Z,0.30
2019-01-31T21:27:28.047Z,0.30
2019-01-31T21:29:57.175Z,0.30
2019-01-31T21:32:25.951Z,0.30
2019-01-31T21:34:54.748Z,0.30
2019-01-31T21:37:23.540Z,0.30
2019-01-31T21:39:52.405Z,0.30
2019-01-31T21:42:21.502Z,0.30
2019-01-31T21:44:50.305Z,0.30
2019-01-31T21:47:19.154Z,0.30
2019-01-31T21:49:47.980Z,0.30
2019-01-31T21:52:17.009Z,0.20
2019-01-31T21:54:46.151Z,0.30
2019-01-31T21:57:14.945Z,0.30
2019-01-31T21:59:43.821Z,0.20
2019-01-31T22:02:13.242Z,0.30
2019-01-31T22:04:42.210Z,0.30
2019-01-31T22:07:10.983Z,0.20
2019-01-31T22:09:39.866Z,0.30
2019-01-31T22:12:08.656Z,0.20
2019-01-31T22:14:37.467Z,0.30
2019-01-31T22:17:14.120Z,0.30
2019-01-31T22:19:36.993Z,0.30
2019-01-31T22:22:06.179Z,0.30
2019-01-31T22:24:34.967Z,0.23
2019-01-31T22:27:04.158Z,0.30
2019-01-31T22:29:33.228Z,0.30
2019-01-31T22:32:02.091Z,0.30
2019-01-31T22:34:31.033Z,0.30
2019-01-31T22:37:00.380Z,0.30
2019-01-31T22:39:29.179Z,0.30
2019-01-31T22:41:58.223Z,0.30
2019-01-31T22:44:26.999Z,0.20
2019-01-31T22:46:56.027Z,0.30
2019-01-31T22:49:25.137Z,0.30
2019-01-31T22:51:54.259Z,0.20
2019-01-31T22:54:23.164Z,0.30
2019-01-31T22:56:52.092Z,0.30
2019-01-31T22:59:20.901Z,0.30
2019-01-31T23:01:56.466Z,0.30
2019-01-31T23:04:25.249Z,0.30
2019-01-31T23:06:54.071Z,0.20
2019-01-31T23:09:22.923Z,0.30
2019-01-31T23:11:52.124Z,0.30
2019-01-31T23:14:20.909Z,0.20
2019-01-31T23:16:49.975Z,0.30
2019-01-31T23:19:19.051Z,0.30
2019-01-31T23:21:47.951Z,0.30
2019-01-31T23:24:17.255Z,0.30
2019-01-31T23:26:46.635Z,0.20
2019-01-31T23:29:15.420Z,0.30
2019-01-31T23:31:44.219Z,0.30
2019-01-31T23:34:12.999Z,0.30
2019-01-31T23:36:41.881Z,0.30
2019-01-31T23:39:11.496Z,0.30
2019-01-31T23:41:40.354Z,0.30
2019-01-31T23:44:09.278Z,0.30
2019-01-31T23:46:38.116Z,0.30
2019-01-31T23:49:07.561Z,0.30
2019-01-31T23:51:37.259Z,0.30
2019-01-31T23:54:06.247Z,0.30
2019-01-31T23:56:35.103Z,0.30
2019-01-31T23:59:04.337Z,0.30
